Flight Track Log - Related Links

Times and Time Zones

All times are in EDT time to prevent confusion due to time zone crossing. See the N53NW flight status page for this flight to view local times or setup timezone preferences in your user account.

Time Position Orientation Groundspeed Altitude Reporting Facility
EDT Latitude Longitude Course Direction KTS MPH feet Rate Location/Type
Sun 07:56:42 PM 34.0000 -118.4667 247° West 156 180 1,500  Level Southern California TRACON
Sun 07:57:26 PM 33.9836 -118.5128 247° West 185 213 3,100 2,264 Climbing Los Angeles Center
Sun 07:58:28 PM 33.9858 -118.5822 272° West 212 244 5,500 1,887 Climbing Los Angeles Center
Sun 07:59:30 PM 33.9578 -118.6481 243° Southwest 221 254 7,000 1,887 Climbing Los Angeles Center
Sun 08:00:32 PM 33.9286 -118.7172 243° Southwest 214 246 9,400 2,274 Climbing Los Angeles Center
Sun 08:01:34 PM 33.9197 -118.7964 262° West 227 261 11,700 2,081 Climbing Los Angeles Center
Sun 08:02:36 PM 33.9086 -118.8858 262° West 268 308 13,700 1,935 Climbing Los Angeles Center
Sun 08:03:38 PM 33.9433 -118.9683 297° West 292 336 15,700 1,920 Climbing Los Angeles Center
Sun 08:04:41 PM 33.9986 -119.0444 311° West 301 346 17,700 1,920 Climbing Los Angeles Center
Sun 08:05:43 PM 34.0544 -119.1242 310° West 309 356 19,700 1,935 Climbing Los Angeles Center
Sun 08:06:45 PM 34.1108 -119.2039 311° West 313 360 21,700 2,177 Climbing Los Angeles Center
Sun 08:07:47 PM 34.1797 -119.3011 311° West 317 365 24,200 2,177 Climbing Los Angeles Center
Sun 08:08:49 PM 34.2361 -119.3839 310° West 320 368 26,200 1,839 Climbing Los Angeles Center
Sun 08:09:51 PM 34.2944 -119.4656 311° West 322 371 28,000 871 Climbing Los Angeles Center
Sun 08:10:53 PM 34.3556 -119.5547 310° West 341 392 28,000  Level Los Angeles Center
Sun 08:11:55 PM 34.4214 -119.6489 310° West 361 415 28,000  Level Los Angeles Center
Sun 08:12:57 PM 34.4875 -119.7422 311° West 365 420 28,000  Level Los Angeles Center
Sun 08:13:59 PM 34.5767 -119.8469 316° Northwest 371 427 28,000  Level Los Angeles Center
Sun 08:15:01 PM 34.6531 -119.9275 319° Northwest 373 429 28,000  Level Los Angeles Center
Sun 08:16:04 PM 34.7303 -120.0125 318° Northwest 374 430 28,000  Level Los Angeles Center
Sun 08:17:06 PM 34.8136 -120.1028 318° Northwest 377 434 28,000  Level Los Angeles Center
Sun 08:18:08 PM 34.8914 -120.1892 318° Northwest 380 437 28,000  Level Los Angeles Center
Sun 08:19:10 PM 34.9706 -120.2753 318° Northwest 383 441 28,000  Level Los Angeles Center
Sun 08:20:12 PM 35.0644 -120.3789 318° Northwest 382 440 28,000  Level Los Angeles Center
Sun 08:21:14 PM 35.1439 -120.4672 318° Northwest 386 444 28,000  Level Los Angeles Center
Sun 08:22:16 PM 35.2242 -120.5600 317° Northwest 392 451 28,000  Level Los Angeles Center
Sun 08:23:18 PM 35.3075 -120.6394 322° Northwest 399 459 28,000  Level Los Angeles Center
Sun 08:24:20 PM 35.3944 -120.7172 324° Northwest 399 459 28,000  Level Los Angeles Center
Sun 08:25:22 PM 35.4817 -120.7961 324° Northwest 394 453 28,000  Level Los Angeles Center
Sun 08:26:24 PM 35.5883 -120.8925 324° Northwest 397 457 28,000  Level Los Angeles Center
Sun 08:26:54 PM 35.6286 -120.9281 324° Northwest 396 456 28,000  Level Oakland Center
Sun 08:27:55 PM 35.7186 -121.0086 324° Northwest 399 459 28,000  Level Oakland Center
Sun 08:28:57 PM 35.8061 -121.0917 322° Northwest 398 458 28,000  Level Oakland Center
Sun 08:29:58 PM 35.8953 -121.1689 325° Northwest 396 456 28,000 -585 Level Oakland Center
Sun 08:31:00 PM 35.9828 -121.2514 323° Northwest 395 455 26,800 -1,268 Descending Oakland Center
Sun 08:32:01 PM 36.0681 -121.3292 324° Northwest 384 442 25,400 -1,512 Descending Oakland Center
Sun 08:33:03 PM 36.1714 -121.4269 323° Northwest 390 449 23,700 -1,512 Descending Oakland Center
Sun 08:34:04 PM 36.2539 -121.5031 323° Northwest 374 430 22,300 -1,377 Descending Oakland Center
Sun 08:35:05 PM 36.3364 -121.5794 323° Northwest 369 425 20,900 -1,122 Descending Oakland Center
Sun 08:36:07 PM 36.4169 -121.6542 323° Northwest 364 419 20,000 -443 Descending Oakland Center
Sun 08:37:07 PM 36.5000 -121.7333 323° Northwest 365 420 20,000  Level Northern Cal TRACON
Sun 08:38:07 PM 36.5667 -121.8000 321° Northwest 343 395 20,000 -550 Level Northern Cal TRACON
Sun 08:39:07 PM 36.6500 -121.8667 327° Northwest 347 399 18,900 -1,400 Descending Northern Cal TRACON
Sun 08:40:07 PM 36.7333 -121.9500 321° Northwest 350 403 17,200 -1,650 Descending Northern Cal TRACON
Sun 08:41:07 PM 36.8167 -121.9833 342° North 331 381 15,600 -1,641 Descending Northern Cal TRACON
Sun 08:42:15 PM 36.9133 -122.0103 347° North 323 372 13,700 -1,721 Descending Oakland Center
Sun 08:43:16 PM 36.9986 -122.0319 349° North 314 361 11,900 -1,721 Descending Oakland Center
Sun 08:44:17 PM 37.0794 -122.0519 349° North 301 346 10,200 -1,659 Descending Oakland Center
Sun 08:45:19 PM 37.1556 -122.0717 348° North 284 327 8,500 -1,122 Descending Oakland Center
Sun 08:46:20 PM 37.2314 -122.0919 348° North 280 322 7,900 -878 Descending Oakland Center
Sun 08:47:22 PM 37.3058 -122.1144 346° North 277 319 6,700 -976 Descending Oakland Center
Sun 08:48:23 PM 37.3758 -122.1308 349° North 261 300 5,900 -1,279 Descending Oakland Center
Sun 08:49:24 PM 37.4483 -122.1508 348° North 231 266 4,100 -976 Descending Oakland Center
Sun 08:50:26 PM 37.5019 -122.1664 347° North 205 236 3,900 -439 Descending Oakland Center
Sun 08:51:27 PM 37.5453 -122.1928 334° Northwest 186 214 3,200 -934 Descending Oakland Center
Sun 08:52:28 PM 37.5672 -122.2522 295° West 185 213 2,000 -1,073 Descending Oakland Center
Sun 08:53:30 PM 37.5911 -122.3047 300° West 178 205 1,000 -829 Descending Oakland Center
Sun 08:54:31 PM 37.6081 -122.3433 299° West 149 171 300 -393 Descending Oakland Center
Sun 08:55:32 PM 37.6222 -122.3764 298° West 142 163 200 -98 Descending Oakland Center
Sun 08:57:00 PM 37.6167 -122.3667 North  Level FlightAware Approximate

Login

Don't have an account? Register now (free) for customized features, flight alerts, and more!